Hamilton Island Airport
YBHM : now visible

Airfield :











YOU CAN JOIN US ON...

 
LOGIN :

Register | Disclaimer

   EN    FR    IT 

 









Legend :    VFR   Marginal VFR   IFR   Intensive IFR   Very Intensive IFR
Visi :
Ceiling :
>= 8 km
>= 3000ft
5 to 8 km
1000 to 3000 ft
1500m to 5 km
500 to 1000 ft
800 to 1500m
200 to 500 ft
< 800m
< 200 ft
Symbols :   Thunderstorms  Fog  Heavy snow  Heavy precipitations  Wind > 20 kt






- Airport Elevation : 15 ft
- IATA code : HTI


YBHM - Hamilton Island

CURRENT METAR :
  • 270430Z AUTO 32016KT 9999 // SCT015 29/27 Q1005 RF00.0/001.2

EXPIRED METARs :
  • 270400Z AUTO 31017KT 9999 // SCT014 30/26 Q1005
  • 270330Z AUTO 31015KT 9999 // SCT015 29/27 Q1005 RF00.0/001.0
  • 270307Z AUTO 31008KT 9999 // SCT015 29/27 Q1006 RF00.0/001.0
  • 270246Z AUTO 05009KT 9999 // BKN017 28/26 Q1007 RF00.0/001.0

TAF TAF YBHM
Valid from the 27 at 00:00 until the 27 at 12:00 UTC


262207Z 2700/2712 34012KT 9999 SCT025 INTER 2703/2710 2000 SHRA BKN010
PROB30
TEMPO 2703/2709 VRB25G35KT 1000 TSRA BKN005 SCT020CB



MET'MAP, your aeronautical weather chart ! - Copyright ORBIFLY December 2007 - Disclaimer

ORBIFLY MET'MAP TEAM :

Programming & Development : Alexandra Zaïnal
Concept & original design : Baudouin d'Aumeries
Assistance for programming : Marc-Olivier Méhu
Technical & hardware support : Manuel Goepfert

Contact : metmap@orbifly.com




SOURCES & CREDITS :

   NOAA       Earth
Advisory